Kimberly, WI (54136)

3:03 PM CST on November 23, 2014 (GMT -0600)
N9OEQ - Darboy USA | Change Station
CLOSE
Current Station
Personal Weather Station
Location: Appleton, WI
Elevation: 735 ft
Nearby Weather Stations

Elev 735 ft 44.25 °N, 88.35 °W | Updated 11 seconds ago

Rain
Rain
47.5 °F
Feels Like 48 °F
N
0.0
Wind Variable Wind from SW
Gusts 1.6 mph

Today
High -- | Low -- °F
--% Chance of Precip.
Yesterday
High -- | Low -- °F
Precip. -- in
6:59 AM 4:19 PM
New Moon, 2% visible
Pressure 29.47 in
Visibility 2.0 miles
Clouds Overcast 800 ft
Windchill 48 °F
Dew Point 47 °F
Humidity 99%
Rainfall 0.09 in
Snow Depth Not available.
UV 0 out of 12
Pollen .10 out of 12
Air Quality Not available.
Flu Activity Not available.
METAR KATW 232045Z 17008KT 2SM -RABR OVC008 08/08 A2947

More Conditions Fewer Conditions

Pressure 29.47 in
Visibility 2.0 miles
Clouds Overcast 800 ft
Windchill 48 °F
Dew Point 47 °F
Humidity 99%
Rainfall 0.09 in
Snow Depth Not available.
UV 0 out of 12
Pollen .10 out of 12
Air Quality Not available.
Flu Activity Not available.
METAR KATW 232045Z 17008KT 2SM -RABR OVC008 08/08 A2947

More Conditions Fewer Conditions

10-Day Weather Forecast

Almanac

Astronomy

Nov. 23, 2014 Rise Set
Actual Time
Civil Twilight
Nautical Twilight
Astronomical Twilight
Moon
Length of Visible Light
Length of Day
Tomorrow will be .
, % of the Moon is Illuminated

Today's Extremes

State Highs State Lows

Community

WunderPhotos

Upload Photos

1,773,176 photos uploaded!

WunderBlogs® & News

Nearby

Air Quality

  Air Quality AQ Index Pollutant
Not available.

Snow Depth

Station Depth Elevation

Earthquake Activity

City Distance Mag. Time & Date
Minimum magnitude displayed is 2.5.

Coastal Water Temperatures

Place Temperature

Nearby Weather Stations